createdAt,value
2023-02-12T00:00:12.880Z,5.13
2023-02-12T00:22:28.957Z,4.57
2023-02-12T00:25:50.314Z,4.07
2023-02-12T00:35:48.716Z,3.77
2023-02-12T00:50:31.622Z,4.80
2023-02-12T02:10:34.109Z,5.67
2023-02-12T02:16:59.873Z,5.20
2023-02-12T02:19:50.628Z,4.90
2023-02-12T02:22:36.331Z,4.80
2023-02-12T02:25:46.537Z,5.10
2023-02-12T02:28:54.771Z,5.40
2023-02-12T02:32:07.749Z,4.37
2023-02-12T02:34:54.278Z,4.77
2023-02-12T02:38:02.205Z,4.03
2023-02-12T02:41:01.617Z,5.43
2023-02-12T02:43:36.135Z,4.20
2023-02-12T09:49:16.484Z,5.40
2023-02-12T09:55:59.905Z,4.73
2023-02-12T10:22:32.826Z,4.47
2023-02-12T10:29:36.914Z,6.40
2023-02-12T10:54:50.024Z,4.33
2023-02-12T10:57:39.271Z,4.57
2023-02-12T11:00:32.962Z,4.70
2023-02-12T11:03:29.263Z,4.90
2023-02-12T11:06:41.355Z,4.40
2023-02-12T11:09:27.853Z,4.43
2023-02-12T11:12:54.807Z,4.30
2023-02-12T17:19:56.098Z,4.17
2023-02-12T17:22:48.581Z,4.00
2023-02-12T17:25:20.678Z,4.43
2023-02-12T17:36:11.947Z,5.00
2023-02-12T18:13:49.297Z,6.93
2023-02-12T18:16:18.786Z,6.40
2023-02-12T18:18:47.341Z,7.30
2023-02-12T18:21:17.739Z,10.07
2023-02-12T18:23:51.330Z,12.60
2023-02-12T18:26:32.339Z,7.53
2023-02-12T18:29:02.259Z,8.20
2023-02-12T18:31:40.434Z,7.83
2023-02-12T18:34:16.778Z,5.87
2023-02-12T18:36:46.715Z,6.20
2023-02-12T18:39:14.455Z,8.13
2023-02-12T18:41:48.478Z,7.03
2023-02-12T18:44:20.148Z,5.97
2023-02-12T18:46:52.888Z,5.83
2023-02-12T18:49:21.614Z,6.00
2023-02-12T18:51:49.161Z,5.70
2023-02-12T18:54:18.016Z,5.13
2023-02-12T18:56:53.881Z,7.17
2023-02-12T18:59:27.129Z,7.67
2023-02-12T19:01:56.208Z,5.70
2023-02-12T19:04:33.481Z,6.43
